LiveATC.Net - Listen to live air traffic control over the Internet!


ICAO: EPGD  IATA: GDN   Airport: Gdansk Lech Walesa Airport
City: Gdansk
Country: Poland   Continent: Europe
EPGD METAR Weather: EPGD 200100Z 13005KT 5000 BR NSC 13/13 Q1008
EPGD Flight Activity (FlightAware)
EPGD Webcam:  (Airport Webcams) 

EPGD Tower/Approach
Feed Status: UP   Listeners: 0
Listen in your browser - HTML5 player (in browser, HTML5)
Click here to listen with your own player (launches your MP3 player)
EPGD Tower/Approach Audio Archives
FacilityFrequency
Gdansk Approach127.275
Gdansk Tower118.100

NOTICE

Unauthorized use prohibited. See LiveATC.net Terms of Service


Find LiveATC Audio Streams


Airport/ARTCC Code

Frequency Search
(e.g., 124.400, 128.75)
Site-wide search
 


Browse LiveATC Feeds
Top 50 LiveATC Feeds
LiveATC Feed Map
Bad Weather Areas

LiveATC FAQ
Offer LiveATC feed
Contact LiveATC.net
Press Inquiries

LiveATC on iPhone
LiveATC on Android

Windows Phone
Windows 8/10

LiveATC Mobile
(Mobile browser)

ATC Audio Archives
Interesting Recordings

LiveATC Forums


Home Page
About LiveATC.net
Make a Donation
Terms of Use
Privacy Policy

Canadian Air Freqs

AIRMETs/SIGMETs

FAA Airport Status
Nat'l Airspace Status
Arrival Demand Charts


Server Software By:
Icecast.org
Liquidsoap